createdAt,value
2023-02-14T00:00:59.414Z,5.07
2023-02-14T00:05:55.558Z,4.96
2023-02-14T00:10:54.558Z,4.91
2023-02-14T00:15:50.273Z,4.88
2023-02-14T00:20:44.794Z,4.82
2023-02-14T00:25:38.472Z,4.81
2023-02-14T00:30:29.730Z,4.68
2023-02-14T00:35:23.181Z,4.65
2023-02-14T00:40:19.542Z,4.69
2023-02-14T00:45:22.207Z,4.64
2023-02-14T00:50:18.931Z,4.65
2023-02-14T00:55:18.569Z,4.58
2023-02-14T01:00:12.178Z,4.58
2023-02-14T01:05:09.831Z,4.46
2023-02-14T01:10:00.191Z,4.39
2023-02-14T01:15:04.618Z,4.39
2023-02-14T01:19:57.894Z,4.42
2023-02-14T01:24:51.474Z,4.46
2023-02-14T01:29:42.548Z,4.41
2023-02-14T01:34:35.855Z,4.34
2023-02-14T01:39:30.664Z,4.34
2023-02-14T01:44:45.186Z,4.36
2023-02-14T01:49:48.056Z,4.25
2023-02-14T01:54:49.908Z,4.24
2023-02-14T01:59:45.653Z,4.16
2023-02-14T02:04:47.052Z,4.13
2023-02-14T02:09:48.461Z,4.15
2023-02-14T02:14:39.297Z,4.17
2023-02-14T02:19:58.133Z,4.18
2023-02-14T02:24:56.648Z,4.04
2023-02-14T02:30:09.950Z,4.00
2023-02-14T02:35:16.859Z,3.86
2023-02-14T02:40:30.705Z,3.79
2023-02-14T02:45:29.087Z,3.77
2023-02-14T02:50:46.140Z,3.64
2023-02-14T02:56:05.520Z,3.66
2023-02-14T03:01:05.169Z,3.69
2023-02-14T03:06:04.464Z,3.69
2023-02-14T03:11:05.382Z,3.66
2023-02-14T03:16:03.037Z,3.65
2023-02-14T03:21:09.275Z,3.63
2023-02-14T03:26:15.645Z,3.58
2023-02-14T03:31:23.589Z,3.56
2023-02-14T03:36:32.311Z,3.49
2023-02-14T03:41:31.527Z,3.51
2023-02-14T03:46:27.665Z,3.54
2023-02-14T03:51:26.075Z,3.48
2023-02-14T03:56:21.822Z,3.33
2023-02-14T04:01:25.374Z,3.29
2023-02-14T04:06:34.585Z,3.21
2023-02-14T04:11:29.682Z,3.25
2023-02-14T04:16:22.682Z,3.22
2023-02-14T04:21:16.085Z,3.18
2023-02-14T04:26:08.202Z,3.06
2023-02-14T04:31:00.634Z,3.10
2023-02-14T04:35:53.789Z,3.05
2023-02-14T04:40:53.795Z,3.08
2023-02-14T04:45:52.421Z,3.15
2023-02-14T04:50:49.231Z,3.04
2023-02-14T04:55:40.566Z,3.01
2023-02-14T05:00:34.543Z,2.83
2023-02-14T05:05:25.310Z,2.79
2023-02-14T05:10:16.217Z,2.78
2023-02-14T05:15:08.599Z,2.77
2023-02-14T05:20:20.494Z,2.76
2023-02-14T05:25:11.770Z,2.76
2023-02-14T05:30:07.734Z,2.65
2023-02-14T05:35:05.635Z,2.65
2023-02-14T05:40:02.004Z,2.61
2023-02-14T05:44:55.271Z,2.56
2023-02-14T05:49:45.908Z,2.60
2023-02-14T05:54:42.965Z,2.44
2023-02-14T05:59:38.385Z,2.42
2023-02-14T06:04:31.969Z,2.35
2023-02-14T06:09:26.918Z,2.28
2023-02-14T06:14:23.507Z,2.40
2023-02-14T06:19:27.051Z,2.36
2023-02-14T06:24:18.517Z,2.29
2023-02-14T06:29:10.025Z,2.20
2023-02-14T06:34:04.203Z,2.10
2023-02-14T06:38:55.297Z,2.01
2023-02-14T06:43:53.682Z,2.01
2023-02-14T06:48:49.924Z,1.92
2023-02-14T06:53:47.044Z,1.85
2023-02-14T06:58:56.949Z,1.86
2023-02-14T07:03:49.449Z,1.90
2023-02-14T07:08:39.198Z,1.87
2023-02-14T07:13:35.759Z,1.94
2023-02-14T07:18:29.505Z,1.85
2023-02-14T07:23:26.420Z,1.80
2023-02-14T07:28:26.516Z,1.96
2023-02-14T07:33:35.956Z,1.83
2023-02-14T07:38:30.801Z,1.84
2023-02-14T07:43:21.192Z,2.02
2023-02-14T07:48:12.137Z,2.13
2023-02-14T07:53:09.075Z,2.17
2023-02-14T07:58:02.429Z,2.32
2023-02-14T08:02:59.831Z,2.48
2023-02-14T08:07:55.609Z,2.60
2023-02-14T08:13:03.352Z,2.67
2023-02-14T08:17:58.092Z,2.71
2023-02-14T08:22:48.220Z,2.90
2023-02-14T08:27:39.066Z,2.99
2023-02-14T08:32:33.112Z,3.12
2023-02-14T08:37:28.670Z,3.21
2023-02-14T08:42:21.862Z,3.45
2023-02-14T08:47:16.882Z,3.66
2023-02-14T08:52:18.260Z,3.75
2023-02-14T08:57:09.524Z,3.87
2023-02-14T09:02:00.792Z,3.96
2023-02-14T09:06:51.329Z,3.99
2023-02-14T09:11:48.849Z,4.10
2023-02-14T09:16:38.564Z,4.12
2023-02-14T09:21:31.216Z,4.21
2023-02-14T09:26:25.596Z,4.34
2023-02-14T09:31:22.453Z,4.46
2023-02-14T09:36:28.110Z,4.60
2023-02-14T09:41:38.940Z,4.78
2023-02-14T09:46:37.814Z,5.28
2023-02-14T09:51:35.349Z,6.30
2023-02-14T09:56:37.346Z,7.21
2023-02-14T10:01:46.650Z,7.75
2023-02-14T10:06:57.424Z,8.10
2023-02-14T10:11:51.439Z,8.51
2023-02-14T10:16:49.853Z,8.98
2023-02-14T10:21:48.010Z,9.68
2023-02-14T10:26:46.481Z,10.22
2023-02-14T10:31:52.061Z,10.72
2023-02-14T10:36:50.601Z,11.31
2023-02-14T10:41:49.773Z,11.50
2023-02-14T10:46:56.160Z,11.70
2023-02-14T10:51:55.588Z,11.70
2023-02-14T10:57:01.207Z,11.64
2023-02-14T11:01:51.147Z,11.77
2023-02-14T11:06:43.248Z,11.95
2023-02-14T11:11:47.631Z,11.98
2023-02-14T11:16:42.595Z,12.10
2023-02-14T11:21:40.746Z,12.15
2023-02-14T11:26:35.075Z,11.99
2023-02-14T11:31:37.047Z,12.08
2023-02-14T11:36:31.094Z,12.06
2023-02-14T11:41:21.712Z,12.28
2023-02-14T11:46:18.444Z,12.33
2023-02-14T11:51:14.649Z,12.47
2023-02-14T11:56:08.465Z,12.57
2023-02-14T12:01:09.711Z,12.63
2023-02-14T12:06:04.854Z,12.59
2023-02-14T12:11:07.688Z,12.58
2023-02-14T12:15:58.311Z,12.46
2023-02-14T12:20:55.504Z,12.52
2023-02-14T12:25:56.866Z,12.49
2023-02-14T12:30:52.935Z,12.57
2023-02-14T12:35:49.987Z,12.54
2023-02-14T12:40:52.506Z,12.46
2023-02-14T12:46:00.165Z,12.63
2023-02-14T12:51:00.931Z,12.71
2023-02-14T12:56:05.494Z,12.66
2023-02-14T13:01:09.311Z,12.77
2023-02-14T13:06:07.688Z,12.81
2023-02-14T13:11:07.421Z,12.96
2023-02-14T13:16:07.054Z,13.16
2023-02-14T13:21:10.051Z,13.49
2023-02-14T13:26:05.173Z,13.82
2023-02-14T13:30:56.874Z,14.12
2023-02-14T13:35:54.845Z,13.75
2023-02-14T13:40:45.244Z,13.52
2023-02-14T13:45:59.529Z,13.44
2023-02-14T13:51:00.000Z,13.19
2023-02-14T13:55:56.122Z,13.07
2023-02-14T14:00:49.541Z,12.91
2023-02-14T14:06:09.960Z,13.03
2023-02-14T14:11:10.549Z,12.97
2023-02-14T14:16:35.341Z,12.97
2023-02-14T14:21:35.176Z,12.94
2023-02-14T14:26:39.280Z,12.95
2023-02-14T14:31:33.174Z,12.86
2023-02-14T14:36:32.348Z,12.83
2023-02-14T14:41:32.887Z,12.91
2023-02-14T14:46:25.435Z,12.95
2023-02-14T14:51:28.602Z,13.03
2023-02-14T14:56:36.565Z,13.11
2023-02-14T15:01:37.519Z,13.14
2023-02-14T15:06:30.372Z,13.09
2023-02-14T15:11:43.870Z,13.06
2023-02-14T15:16:46.847Z,13.02
2023-02-14T15:21:44.590Z,13.05
2023-02-14T15:26:42.558Z,13.00
2023-02-14T15:31:38.920Z,12.91
2023-02-14T15:36:34.233Z,12.89
2023-02-14T15:41:29.012Z,12.84
2023-02-14T15:46:30.641Z,12.88
2023-02-14T15:51:30.348Z,12.91
2023-02-14T15:56:32.682Z,12.68
2023-02-14T16:01:27.757Z,12.70
2023-02-14T16:06:33.622Z,12.60
2023-02-14T16:11:39.188Z,12.42
2023-02-14T16:17:02.483Z,12.43
2023-02-14T16:22:00.136Z,12.26
2023-02-14T16:26:56.767Z,12.16
2023-02-14T16:32:15.069Z,12.05
2023-02-14T16:37:12.340Z,11.87
2023-02-14T16:42:12.190Z,11.77
2023-02-14T16:47:05.960Z,11.98
2023-02-14T16:51:57.764Z,11.82
2023-02-14T16:56:53.956Z,11.58
2023-02-14T17:01:50.166Z,11.34
2023-02-14T17:06:49.029Z,11.36
2023-02-14T17:11:44.248Z,11.19
2023-02-14T17:16:40.842Z,10.77
2023-02-14T17:21:38.939Z,10.55
2023-02-14T17:26:39.632Z,10.43
2023-02-14T17:31:31.679Z,10.46
2023-02-14T17:36:33.522Z,10.17
2023-02-14T17:41:37.469Z,9.84
2023-02-14T17:46:31.387Z,9.58
2023-02-14T17:51:25.852Z,9.38
2023-02-14T17:56:23.900Z,9.30
2023-02-14T18:01:16.283Z,9.19
2023-02-14T18:06:10.355Z,9.10
2023-02-14T18:11:02.529Z,9.04
2023-02-14T18:15:54.242Z,9.00
2023-02-14T18:20:57.486Z,8.88
2023-02-14T18:25:55.684Z,8.86
2023-02-14T18:30:48.785Z,8.81
2023-02-14T18:35:39.685Z,8.83
2023-02-14T18:40:41.678Z,8.73
2023-02-14T18:45:32.448Z,8.65
2023-02-14T18:50:23.951Z,8.56
2023-02-14T18:55:16.198Z,8.34
2023-02-14T19:00:22.262Z,8.01
2023-02-14T19:05:20.180Z,7.90
2023-02-14T19:10:20.750Z,7.85
2023-02-14T19:15:14.525Z,7.67
2023-02-14T19:20:13.354Z,7.58
2023-02-14T19:25:10.364Z,7.62
2023-02-14T19:30:04.052Z,7.57
2023-02-14T19:35:07.275Z,7.49
2023-02-14T19:40:00.760Z,7.34
2023-02-14T19:44:58.870Z,7.59
2023-02-14T19:49:51.402Z,7.54
2023-02-14T19:54:44.722Z,7.46
2023-02-14T19:59:39.046Z,7.36
2023-02-14T20:04:33.331Z,7.23
2023-02-14T20:09:33.190Z,7.07
2023-02-14T20:14:25.995Z,7.05
2023-02-14T20:19:29.994Z,6.98
2023-02-14T20:24:31.374Z,6.91
2023-02-14T20:29:21.431Z,6.70
2023-02-14T20:34:11.033Z,6.73
2023-02-14T20:39:07.711Z,6.69
2023-02-14T20:44:04.009Z,6.67
2023-02-14T20:49:01.095Z,6.63
2023-02-14T20:53:53.296Z,6.58
2023-02-14T20:58:48.088Z,6.50
2023-02-14T21:03:41.252Z,6.43
2023-02-14T21:08:33.886Z,6.40
2023-02-14T21:13:25.902Z,6.34
2023-02-14T21:18:19.819Z,6.26
2023-02-14T21:23:11.570Z,6.18
2023-02-14T21:28:03.789Z,6.15
2023-02-14T21:32:53.591Z,6.11
2023-02-14T21:37:51.831Z,6.08
2023-02-14T21:42:43.530Z,6.06
2023-02-14T21:47:43.353Z,6.00
2023-02-14T21:52:34.250Z,5.96
2023-02-14T21:57:30.626Z,5.90
2023-02-14T22:02:27.080Z,5.83
2023-02-14T22:07:18.895Z,5.82
2023-02-14T22:12:10.089Z,5.69
2023-02-14T22:17:06.351Z,5.63
2023-02-14T22:22:03.511Z,5.55
2023-02-14T22:26:56.924Z,5.54
2023-02-14T22:31:50.682Z,5.47
2023-02-14T22:36:45.750Z,5.40
2023-02-14T22:41:44.477Z,5.38
2023-02-14T22:46:37.896Z,5.37
2023-02-14T22:51:40.796Z,5.29
2023-02-14T22:56:35.715Z,5.26
2023-02-14T23:01:26.734Z,5.23
2023-02-14T23:06:20.459Z,5.12
2023-02-14T23:11:12.004Z,5.09
2023-02-14T23:16:19.429Z,5.10
2023-02-14T23:21:28.435Z,5.13
2023-02-14T23:26:23.914Z,5.06
2023-02-14T23:31:19.745Z,4.91
2023-02-14T23:36:09.721Z,4.81
2023-02-14T23:41:14.209Z,4.78
2023-02-14T23:46:04.915Z,4.75
2023-02-14T23:51:05.309Z,4.69
2023-02-14T23:55:55.785Z,4.66
